createdAt,value
2022-12-26T00:00:31.139Z,2.83
2022-12-26T00:02:57.840Z,2.80
2022-12-26T00:05:24.546Z,2.65
2022-12-26T00:07:51.271Z,2.67
2022-12-26T00:10:17.786Z,2.67
2022-12-26T00:12:44.401Z,2.90
2022-12-26T00:15:11.292Z,2.72
2022-12-26T00:17:40.577Z,2.80
2022-12-26T00:20:07.553Z,2.80
2022-12-26T00:22:34.537Z,2.63
2022-12-26T00:25:01.122Z,2.80
2022-12-26T00:27:27.646Z,2.83
2022-12-26T00:29:54.259Z,3.08
2022-12-26T00:32:20.796Z,2.90
2022-12-26T00:34:47.283Z,2.83
2022-12-26T00:37:13.837Z,2.78
2022-12-26T00:39:40.356Z,2.53
2022-12-26T00:42:06.848Z,2.30
2022-12-26T00:44:33.414Z,2.60
2022-12-26T00:47:00.060Z,2.50
2022-12-26T00:49:26.711Z,2.50
2022-12-26T00:51:53.248Z,2.63
2022-12-26T00:54:19.789Z,2.33
2022-12-26T00:56:46.352Z,2.58
2022-12-26T00:59:12.882Z,2.58
2022-12-26T01:01:39.702Z,2.40
2022-12-26T01:04:06.489Z,2.33
2022-12-26T01:06:33.288Z,2.08
2022-12-26T01:08:59.871Z,2.28
2022-12-26T01:11:41.324Z,2.17
2022-12-26T01:14:14.226Z,1.98
2022-12-26T01:16:42.491Z,2.28
2022-12-26T01:19:10.150Z,2.30
2022-12-26T01:21:37.209Z,2.00
2022-12-26T01:24:04.032Z,2.30
2022-12-26T01:26:30.637Z,2.17
2022-12-26T01:28:57.167Z,2.17
2022-12-26T01:31:23.851Z,2.55
2022-12-26T01:33:50.680Z,2.20
2022-12-26T01:36:17.955Z,2.10
2022-12-26T01:38:45.163Z,2.15
2022-12-26T01:41:17.832Z,2.53
2022-12-26T01:43:58.531Z,2.42
2022-12-26T01:46:45.464Z,2.40
2022-12-26T01:49:19.101Z,2.50
2022-12-26T01:51:49.582Z,2.53
2022-12-26T01:54:41.334Z,2.25
2022-12-26T01:57:05.350Z,2.50
2022-12-26T01:59:36.054Z,2.38
2022-12-26T02:02:03.467Z,2.17
2022-12-26T02:04:53.272Z,2.50
2022-12-26T02:07:20.461Z,2.40
2022-12-26T02:09:47.067Z,2.20
2022-12-26T02:12:35.414Z,2.10
2022-12-26T02:15:11.005Z,1.83
2022-12-26T02:17:38.286Z,2.22
2022-12-26T02:20:20.132Z,1.80
2022-12-26T02:23:05.105Z,2.10
2022-12-26T02:26:01.669Z,2.08
2022-12-26T02:28:37.078Z,2.25
2022-12-26T02:31:03.576Z,2.30
2022-12-26T02:33:57.720Z,2.20
2022-12-26T02:36:27.897Z,2.30
2022-12-26T02:39:45.183Z,2.13
2022-12-26T02:42:07.205Z,2.20
2022-12-26T02:45:07.432Z,2.60
2022-12-26T02:47:49.714Z,2.33
2022-12-26T02:50:37.709Z,2.30
2022-12-26T02:53:25.705Z,2.45
2022-12-26T02:56:12.470Z,2.50
2022-12-26T02:59:53.759Z,2.53
2022-12-26T03:02:48.140Z,2.40
2022-12-26T03:05:41.120Z,2.50
2022-12-26T03:08:28.697Z,2.60
2022-12-26T03:11:14.851Z,2.60
2022-12-26T03:13:42.144Z,2.22
2022-12-26T03:16:29.557Z,2.50
2022-12-26T03:19:00.975Z,2.60
2022-12-26T03:21:30.722Z,2.28
2022-12-26T03:23:57.342Z,2.30
2022-12-26T03:26:43.722Z,2.30
2022-12-26T03:29:30.919Z,2.50
2022-12-26T03:31:58.269Z,2.45
2022-12-26T03:34:25.351Z,2.40
2022-12-26T03:36:57.439Z,2.50
2022-12-26T03:40:04.692Z,2.95
2022-12-26T03:43:00.130Z,2.55
2022-12-26T03:46:14.957Z,2.50
2022-12-26T03:49:39.527Z,2.70
2022-12-26T03:52:29.913Z,2.42
2022-12-26T03:55:26.777Z,2.63
2022-12-26T03:58:40.706Z,2.40
2022-12-26T04:01:30.734Z,2.25
2022-12-26T04:04:16.444Z,2.50
2022-12-26T04:07:10.201Z,2.17
2022-12-26T04:10:04.391Z,2.00
2022-12-26T04:12:51.119Z,2.08
2022-12-26T04:15:44.857Z,2.10
2022-12-26T04:18:40.346Z,1.92
2022-12-26T04:21:34.848Z,1.83
2022-12-26T04:24:27.110Z,1.83
2022-12-26T04:29:58.814Z,2.10
2022-12-26T04:32:56.138Z,2.05
2022-12-26T04:35:52.424Z,2.20
2022-12-26T04:38:48.662Z,2.08
2022-12-26T04:41:34.691Z,2.08
2022-12-26T04:44:10.370Z,2.10
2022-12-26T04:46:39.765Z,2.13
2022-12-26T04:49:27.287Z,2.33
2022-12-26T04:51:55.853Z,2.45
2022-12-26T04:54:22.446Z,2.30
2022-12-26T04:56:49.002Z,2.28
2022-12-26T04:59:16.332Z,1.90
2022-12-26T05:02:01.282Z,2.38
2022-12-26T05:04:46.660Z,2.40
2022-12-26T05:07:52.975Z,2.20
2022-12-26T05:10:22.267Z,2.10
2022-12-26T05:12:49.086Z,2.20
2022-12-26T05:15:15.745Z,2.35
2022-12-26T05:18:01.090Z,2.38
2022-12-26T05:20:50.324Z,2.38
2022-12-26T05:23:41.217Z,2.22
2022-12-26T05:26:34.763Z,1.98
2022-12-26T05:29:01.420Z,1.88
2022-12-26T05:31:34.653Z,2.10
2022-12-26T05:34:12.840Z,2.20
2022-12-26T05:36:43.174Z,2.08
2022-12-26T05:39:10.184Z,2.10
2022-12-26T05:41:37.969Z,2.40
2022-12-26T05:44:05.797Z,2.60
2022-12-26T05:46:33.044Z,2.50
2022-12-26T05:49:01.225Z,2.42
2022-12-26T05:51:27.843Z,2.63
2022-12-26T05:53:54.382Z,2.47
2022-12-26T05:56:21.526Z,2.33
2022-12-26T05:58:48.208Z,2.28
2022-12-26T06:01:17.413Z,2.10
2022-12-26T06:03:47.668Z,2.00
2022-12-26T06:06:14.916Z,2.28
2022-12-26T06:08:41.642Z,2.42
2022-12-26T06:11:10.547Z,2.75
2022-12-26T06:13:37.701Z,2.50
2022-12-26T06:16:09.225Z,2.63
2022-12-26T06:18:35.964Z,2.45
2022-12-26T06:21:07.030Z,2.22
2022-12-26T06:23:34.918Z,2.60
2022-12-26T06:26:01.771Z,2.60
2022-12-26T06:28:28.526Z,2.33
2022-12-26T06:30:55.085Z,2.13
2022-12-26T06:33:21.887Z,2.10
2022-12-26T06:35:48.407Z,2.03
2022-12-26T06:38:14.930Z,2.30
2022-12-26T06:40:41.792Z,2.15
2022-12-26T06:43:08.893Z,2.20
2022-12-26T06:45:37.157Z,2.30
2022-12-26T06:48:03.886Z,2.58
2022-12-26T06:50:30.525Z,2.50
2022-12-26T06:52:57.074Z,2.70
2022-12-26T06:55:23.705Z,2.63
2022-12-26T06:57:52.489Z,2.75
2022-12-26T07:00:19.165Z,2.58
2022-12-26T07:02:49.456Z,2.47
2022-12-26T07:05:16.171Z,2.78
2022-12-26T07:07:42.666Z,2.45
2022-12-26T07:10:09.724Z,2.10
2022-12-26T07:12:36.254Z,2.20
2022-12-26T07:15:02.880Z,2.42
2022-12-26T07:17:29.350Z,2.30
2022-12-26T07:19:55.898Z,2.60
2022-12-26T07:22:22.459Z,2.40
2022-12-26T07:24:48.972Z,2.67
2022-12-26T07:27:15.541Z,2.13
2022-12-26T07:29:42.073Z,2.25
2022-12-26T07:32:08.625Z,2.38
2022-12-26T07:34:35.105Z,2.17
2022-12-26T07:37:01.763Z,2.25
2022-12-26T07:39:28.351Z,2.15
2022-12-26T07:41:57.782Z,2.75
2022-12-26T07:44:25.771Z,2.70
2022-12-26T07:46:52.557Z,2.60
2022-12-26T07:49:19.129Z,2.55
2022-12-26T07:51:45.766Z,2.35
2022-12-26T07:54:13.271Z,2.53
2022-12-26T07:56:40.604Z,2.33
2022-12-26T07:59:07.862Z,2.40
2022-12-26T08:01:34.515Z,2.60
2022-12-26T08:04:01.227Z,2.63
2022-12-26T08:06:27.946Z,2.58
2022-12-26T08:08:54.499Z,2.72
2022-12-26T08:11:23.070Z,2.60
2022-12-26T08:13:50.231Z,2.60
2022-12-26T08:16:17.266Z,2.58
2022-12-26T08:18:45.093Z,2.58
2022-12-26T08:21:12.745Z,2.25
2022-12-26T08:23:40.733Z,2.70
2022-12-26T08:26:09.048Z,2.33
2022-12-26T08:28:35.640Z,2.42
2022-12-26T08:31:06.888Z,2.60
2022-12-26T08:33:33.476Z,2.30
2022-12-26T08:36:07.919Z,2.30
2022-12-26T08:38:35.987Z,2.17
2022-12-26T08:41:02.795Z,2.65
2022-12-26T08:43:48.913Z,2.53
2022-12-26T08:46:16.272Z,2.63
2022-12-26T08:48:43.671Z,2.63
2022-12-26T08:51:14.044Z,2.35
2022-12-26T08:53:40.931Z,2.80
2022-12-26T08:56:10.809Z,2.40
2022-12-26T08:58:37.424Z,2.47
2022-12-26T09:01:08.228Z,2.55
2022-12-26T09:03:34.844Z,2.42
2022-12-26T09:06:05.958Z,2.60
2022-12-26T09:08:35.443Z,2.80
2022-12-26T09:11:06.828Z,2.85
2022-12-26T09:13:35.142Z,2.67
2022-12-26T09:16:23.878Z,2.40
2022-12-26T09:18:57.362Z,2.40
2022-12-26T09:21:27.195Z,2.50
2022-12-26T09:23:59.228Z,2.63
2022-12-26T09:26:26.309Z,2.83
2022-12-26T09:28:53.147Z,2.38
2022-12-26T09:31:22.555Z,2.63
2022-12-26T09:33:50.010Z,2.65
2022-12-26T09:36:19.305Z,2.60
2022-12-26T09:38:48.666Z,2.47
2022-12-26T09:41:33.763Z,2.40
2022-12-26T09:44:28.494Z,2.50
2022-12-26T09:46:57.411Z,2.42
2022-12-26T09:49:53.297Z,2.20
2022-12-26T09:52:23.757Z,2.30
2022-12-26T09:54:58.973Z,2.60
2022-12-26T09:57:39.536Z,2.60
2022-12-26T10:00:07.308Z,2.30
2022-12-26T10:02:35.029Z,2.58
2022-12-26T10:05:02.378Z,2.60
2022-12-26T10:07:34.768Z,2.15
2022-12-26T10:10:04.278Z,2.40
2022-12-26T10:12:49.429Z,2.50
2022-12-26T10:15:35.079Z,2.40
2022-12-26T10:18:13.756Z,2.20
2022-12-26T10:20:55.030Z,2.67
2022-12-26T10:23:45.437Z,2.35
2022-12-26T10:26:24.125Z,2.40
2022-12-26T10:29:05.629Z,3.05
2022-12-26T10:31:37.038Z,3.55
2022-12-26T10:34:24.326Z,2.97
2022-12-26T10:36:59.305Z,3.03
2022-12-26T10:39:58.263Z,3.08
2022-12-26T10:42:30.070Z,2.50
2022-12-26T10:47:38.067Z,2.83
2022-12-26T10:50:05.185Z,2.45
2022-12-26T10:52:36.974Z,2.50
2022-12-26T10:57:51.941Z,2.20
2022-12-26T11:00:21.876Z,2.70
2022-12-26T11:03:11.456Z,2.25
2022-12-26T11:08:43.238Z,2.60
2022-12-26T11:11:20.116Z,2.85
2022-12-26T11:14:04.557Z,2.35
2022-12-26T11:16:38.773Z,2.30
2022-12-26T11:19:05.583Z,2.30
2022-12-26T11:21:32.901Z,2.65
2022-12-26T11:24:08.765Z,2.50
2022-12-26T11:26:35.425Z,2.55
2022-12-26T11:29:18.320Z,2.20
2022-12-26T11:31:54.850Z,2.47
2022-12-26T11:34:34.522Z,2.42
2022-12-26T11:37:03.945Z,2.78
2022-12-26T11:39:33.596Z,2.78
2022-12-26T11:42:00.329Z,2.45
2022-12-26T11:44:30.782Z,3.10
2022-12-26T11:47:02.012Z,2.30
2022-12-26T11:49:32.931Z,3.00
2022-12-26T11:52:01.941Z,2.87
2022-12-26T11:54:34.945Z,2.92
2022-12-26T11:57:07.364Z,2.90
2022-12-26T11:59:33.942Z,2.92
2022-12-26T12:02:18.250Z,2.90
2022-12-26T12:04:47.040Z,3.47
2022-12-26T12:07:23.866Z,3.08
2022-12-26T12:10:00.389Z,3.00
2022-12-26T12:12:47.456Z,3.28
2022-12-26T12:15:20.272Z,2.80
2022-12-26T12:18:03.722Z,2.70
2022-12-26T12:20:51.636Z,2.60
2022-12-26T12:23:36.057Z,2.42
2022-12-26T12:26:31.629Z,2.72
2022-12-26T12:29:35.752Z,3.03
2022-12-26T12:32:45.700Z,2.20
2022-12-26T12:35:28.448Z,2.67
2022-12-26T12:38:32.300Z,2.58
2022-12-26T12:41:07.777Z,2.47
2022-12-26T12:43:49.490Z,2.30
2022-12-26T12:46:30.988Z,2.17
2022-12-26T12:49:09.635Z,2.50
2022-12-26T12:51:49.391Z,3.30
2022-12-26T12:54:41.507Z,2.95
2022-12-26T13:02:39.990Z,3.20
2022-12-26T13:05:22.972Z,2.83
2022-12-26T13:08:04.927Z,2.95
2022-12-26T13:13:07.054Z,3.38
2022-12-26T13:15:43.048Z,3.67
2022-12-26T13:18:31.596Z,3.80
2022-12-26T13:21:04.630Z,3.35
2022-12-26T13:23:54.377Z,3.60
2022-12-26T13:26:25.287Z,4.55
2022-12-26T13:29:11.672Z,3.73
2022-12-26T13:31:39.435Z,3.85
2022-12-26T13:34:10.019Z,3.38
2022-12-26T13:36:40.605Z,3.22
2022-12-26T13:39:12.993Z,2.90
2022-12-26T13:42:05.398Z,3.00
2022-12-26T13:44:32.956Z,2.80
2022-12-26T13:46:59.950Z,3.22
2022-12-26T13:49:40.248Z,2.85
2022-12-26T13:52:14.743Z,2.92
2022-12-26T13:54:47.036Z,2.65
2022-12-26T13:57:16.305Z,3.03
2022-12-26T14:00:08.602Z,2.53
2022-12-26T14:03:15.992Z,3.00
2022-12-26T14:05:42.893Z,2.40
2022-12-26T14:08:57.567Z,2.58
2022-12-26T14:11:24.039Z,2.20
2022-12-26T14:14:08.373Z,2.30
2022-12-26T14:17:15.958Z,1.98
2022-12-26T14:19:57.530Z,2.40
2022-12-26T14:22:44.330Z,1.80
2022-12-26T14:25:31.273Z,2.08
2022-12-26T14:28:09.655Z,2.30
2022-12-26T14:31:06.879Z,2.00
2022-12-26T14:33:37.761Z,1.70
2022-12-26T14:36:21.329Z,1.70
2022-12-26T14:39:20.300Z,1.85
2022-12-26T14:42:27.128Z,1.60
2022-12-26T14:45:01.357Z,1.35
2022-12-26T14:47:46.976Z,1.75
2022-12-26T14:50:31.885Z,1.48
2022-12-26T14:53:16.968Z,2.10
2022-12-26T14:55:54.815Z,1.80
2022-12-26T14:58:24.305Z,1.60
2022-12-26T15:00:51.245Z,1.55
2022-12-26T15:03:20.840Z,1.90
2022-12-26T15:05:48.796Z,1.80
2022-12-26T15:08:34.663Z,1.95
2022-12-26T15:11:19.741Z,1.80
2022-12-26T15:13:53.558Z,2.25
2022-12-26T15:16:33.556Z,1.70
2022-12-26T15:19:15.258Z,1.70
2022-12-26T15:22:00.422Z,2.05
2022-12-26T15:25:17.690Z,1.80
2022-12-26T15:27:49.807Z,1.70
2022-12-26T15:30:22.050Z,1.60
2022-12-26T15:33:02.481Z,1.73
2022-12-26T15:35:45.767Z,1.90
2022-12-26T15:38:29.197Z,1.60
2022-12-26T15:41:01.551Z,1.63
2022-12-26T15:43:49.520Z,2.15
2022-12-26T15:46:27.734Z,2.00
2022-12-26T15:49:13.179Z,1.88
2022-12-26T15:52:01.495Z,1.63
2022-12-26T15:54:33.994Z,2.00
2022-12-26T15:57:21.592Z,1.67
2022-12-26T16:00:04.099Z,1.50
2022-12-26T16:02:46.946Z,1.70
2022-12-26T16:05:50.443Z,1.80
2022-12-26T16:08:41.761Z,1.63
2022-12-26T16:11:15.238Z,1.95
2022-12-26T16:13:55.656Z,1.60
2022-12-26T16:16:37.222Z,1.63
2022-12-26T16:19:23.918Z,1.58
2022-12-26T16:22:19.722Z,1.75
2022-12-26T16:24:47.496Z,1.90
2022-12-26T16:27:20.939Z,1.70
2022-12-26T16:29:53.714Z,1.70
2022-12-26T16:32:22.610Z,1.85
2022-12-26T16:34:49.492Z,1.63
2022-12-26T16:37:24.364Z,2.45
2022-12-26T16:40:12.894Z,2.75
2022-12-26T16:42:42.829Z,3.78
2022-12-26T16:45:20.385Z,3.85
2022-12-26T16:47:47.492Z,4.00
2022-12-26T16:50:19.811Z,4.43
2022-12-26T16:52:47.164Z,5.15
2022-12-26T16:55:25.196Z,5.05
2022-12-26T16:57:53.752Z,4.60
2022-12-26T17:00:21.550Z,4.60
2022-12-26T17:02:50.316Z,4.80
2022-12-26T17:05:26.045Z,5.05
2022-12-26T17:07:53.846Z,4.50
2022-12-26T17:10:23.180Z,4.82
2022-12-26T17:12:49.959Z,4.55
2022-12-26T17:15:28.884Z,6.20
2022-12-26T17:18:29.212Z,5.70
2022-12-26T17:20:56.207Z,5.03
2022-12-26T17:23:36.107Z,5.65
2022-12-26T17:26:31.770Z,5.90
2022-12-26T17:28:58.389Z,5.97
2022-12-26T17:31:33.968Z,6.25
2022-12-26T17:34:04.242Z,5.60
2022-12-26T17:37:17.040Z,6.13
2022-12-26T17:39:24.620Z,6.05
2022-12-26T17:41:54.532Z,5.85
2022-12-26T17:44:35.974Z,5.40
2022-12-26T17:47:12.301Z,5.50
2022-12-26T17:49:38.954Z,5.55
2022-12-26T17:52:05.600Z,5.28
2022-12-26T17:54:32.188Z,5.95
2022-12-26T17:57:00.712Z,6.43
2022-12-26T17:59:27.195Z,5.45
2022-12-26T18:01:53.831Z,5.70
2022-12-26T18:04:20.458Z,5.70
2022-12-26T18:06:46.956Z,5.68
2022-12-26T18:09:24.571Z,5.72
2022-12-26T18:11:51.175Z,5.95
2022-12-26T18:14:17.824Z,5.72
2022-12-26T18:16:44.367Z,6.15
2022-12-26T18:19:15.131Z,5.90
2022-12-26T18:21:41.852Z,5.93
2022-12-26T18:24:08.591Z,6.18
2022-12-26T18:26:35.322Z,5.68
2022-12-26T18:29:02.260Z,5.45
2022-12-26T18:31:29.063Z,5.30
2022-12-26T18:33:55.992Z,4.95
2022-12-26T18:36:29.063Z,5.40
2022-12-26T18:38:55.650Z,5.03
2022-12-26T18:41:22.138Z,4.80
2022-12-26T18:43:48.748Z,4.72
2022-12-26T18:46:20.345Z,4.70
2022-12-26T18:48:47.279Z,5.28
2022-12-26T18:51:13.823Z,4.90
2022-12-26T18:53:40.386Z,4.70
2022-12-26T18:56:07.433Z,4.50
2022-12-26T18:58:33.893Z,4.47
2022-12-26T19:01:02.704Z,4.60
2022-12-26T19:03:29.375Z,4.82
2022-12-26T19:05:56.118Z,4.40
2022-12-26T19:08:22.677Z,4.80
2022-12-26T19:10:49.218Z,5.35
2022-12-26T19:13:15.874Z,5.22
2022-12-26T19:15:46.869Z,5.60
2022-12-26T19:18:13.634Z,6.00
2022-12-26T19:20:44.179Z,5.38
2022-12-26T19:23:11.449Z,5.60
2022-12-26T19:25:38.131Z,6.05
2022-12-26T19:28:04.679Z,5.63
2022-12-26T19:30:36.751Z,5.95
2022-12-26T19:33:05.200Z,5.80
2022-12-26T19:35:32.121Z,5.28
2022-12-26T19:37:58.779Z,5.80
2022-12-26T19:40:25.646Z,5.40
2022-12-26T19:42:52.614Z,5.15
2022-12-26T19:45:19.223Z,4.68
2022-12-26T19:47:46.003Z,4.63
2022-12-26T19:50:12.734Z,5.00
2022-12-26T19:52:40.737Z,4.68
2022-12-26T19:55:08.846Z,5.10
2022-12-26T19:57:35.461Z,4.60
2022-12-26T20:00:02.153Z,4.70
2022-12-26T20:02:28.860Z,4.60
2022-12-26T20:04:55.468Z,4.82
2022-12-26T20:07:22.011Z,4.80
2022-12-26T20:09:48.488Z,6.65
2022-12-26T20:12:15.009Z,6.82
2022-12-26T20:14:41.498Z,5.65
2022-12-26T20:17:09.368Z,5.57
2022-12-26T20:19:36.873Z,5.80
2022-12-26T20:22:03.998Z,6.55
2022-12-26T20:24:30.586Z,6.47
2022-12-26T20:26:57.093Z,6.43
2022-12-26T20:29:23.669Z,6.50
2022-12-26T20:31:50.386Z,6.80
2022-12-26T20:34:16.936Z,6.18
2022-12-26T20:36:43.471Z,6.32
2022-12-26T20:39:16.783Z,7.15
2022-12-26T20:41:43.713Z,6.15
2022-12-26T20:44:12.607Z,6.20
2022-12-26T20:46:40.140Z,5.70
2022-12-26T20:49:06.652Z,5.85
2022-12-26T20:51:37.802Z,6.40
2022-12-26T20:54:09.963Z,5.60
2022-12-26T20:56:37.527Z,5.15
2022-12-26T20:59:05.500Z,5.00
2022-12-26T21:01:32.521Z,5.68
2022-12-26T21:03:59.588Z,5.60
2022-12-26T21:06:31.573Z,5.53
2022-12-26T21:08:58.648Z,5.45
2022-12-26T21:11:28.250Z,5.95
2022-12-26T21:13:57.328Z,6.03
2022-12-26T21:16:26.459Z,6.07
2022-12-26T21:18:53.170Z,5.97
2022-12-26T21:21:29.026Z,6.10
2022-12-26T21:23:58.245Z,5.78
2022-12-26T21:26:26.210Z,6.00
2022-12-26T21:29:00.612Z,5.85
2022-12-26T21:31:28.445Z,6.18
2022-12-26T21:33:56.565Z,6.10
2022-12-26T21:36:23.385Z,5.85
2022-12-26T21:38:49.937Z,5.60
2022-12-26T21:41:16.687Z,6.20
2022-12-26T21:43:43.310Z,5.78
2022-12-26T21:46:13.307Z,5.15
2022-12-26T21:48:47.069Z,5.30
2022-12-26T21:51:15.352Z,5.25
2022-12-26T21:53:42.650Z,5.22
2022-12-26T21:56:10.011Z,5.05
2022-12-26T21:58:55.154Z,4.97
2022-12-26T22:01:23.512Z,4.75
2022-12-26T22:04:09.237Z,5.53
2022-12-26T22:06:35.993Z,4.97
2022-12-26T22:12:03.687Z,4.03
2022-12-26T22:14:30.320Z,4.10
2022-12-26T22:16:57.331Z,4.32
2022-12-26T22:19:24.689Z,4.18
2022-12-26T22:21:52.708Z,4.32
2022-12-26T22:24:21.331Z,4.38
2022-12-26T22:26:48.222Z,4.65
2022-12-26T22:29:14.823Z,4.07
2022-12-26T22:31:41.501Z,4.25
2022-12-26T22:34:12.395Z,4.72
2022-12-26T22:36:40.366Z,4.00
2022-12-26T22:39:06.919Z,4.38
2022-12-26T22:41:33.703Z,4.45
2022-12-26T22:44:00.220Z,4.40
2022-12-26T22:46:26.865Z,4.82
2022-12-26T22:48:53.473Z,4.53
2022-12-26T22:51:23.034Z,5.30
2022-12-26T22:53:50.351Z,5.38
2022-12-26T22:56:16.915Z,5.18
2022-12-26T22:58:43.506Z,4.90
2022-12-26T23:01:19.177Z,4.82
2022-12-26T23:03:45.949Z,5.03
2022-12-26T23:06:21.171Z,5.20
2022-12-26T23:08:48.892Z,4.90
2022-12-26T23:11:15.720Z,4.75
2022-12-26T23:13:42.579Z,4.68
2022-12-26T23:16:32.379Z,4.85
2022-12-26T23:19:19.985Z,4.95
2022-12-26T23:21:49.300Z,4.65
2022-12-26T23:24:21.658Z,4.30
2022-12-26T23:26:50.745Z,5.20
2022-12-26T23:29:38.468Z,5.15
2022-12-26T23:32:06.099Z,4.80
2022-12-26T23:34:32.629Z,4.50
2022-12-26T23:36:59.403Z,4.78
2022-12-26T23:39:25.893Z,4.25
2022-12-26T23:41:52.550Z,4.47
2022-12-26T23:44:19.265Z,4.22
2022-12-26T23:46:46.088Z,4.28
2022-12-26T23:49:16.032Z,4.25
2022-12-26T23:51:43.071Z,4.25
2022-12-26T23:54:10.061Z,3.80
2022-12-26T23:56:37.135Z,4.43
2022-12-26T23:59:04.884Z,4.78
